createdAt,value
2017-10-18T00:00:07.510Z,99818.19
2017-10-18T00:02:33.946Z,99796.52
2017-10-18T00:05:00.380Z,99817.92
2017-10-18T00:07:26.814Z,99813.88
2017-10-18T00:09:54.020Z,99813.61
2017-10-18T00:12:20.401Z,99803.92
2017-10-18T00:14:46.836Z,99802.16
2017-10-18T00:17:13.269Z,99803.80
2017-10-18T00:19:39.708Z,99803.25
2017-10-18T00:22:06.142Z,99800.88
2017-10-18T00:24:32.577Z,99796.42
2017-10-18T00:26:59.854Z,99802.05
2017-10-18T00:29:26.264Z,99802.89
2017-10-18T00:31:52.699Z,99803.31
2017-10-18T00:34:19.114Z,99799.94
2017-10-18T00:36:45.551Z,99800.46
2017-10-18T00:39:12.004Z,99810.70
2017-10-18T00:41:38.540Z,99798.28
2017-10-18T00:44:05.594Z,99801.66
2017-10-18T00:46:32.024Z,99808.80
2017-10-18T00:48:58.439Z,99799.38
2017-10-18T00:51:24.880Z,99793.73
2017-10-18T00:53:51.330Z,99793.73
2017-10-18T00:56:17.763Z,99791.98
2017-10-18T00:58:44.198Z,99785.13
2017-10-18T01:01:11.350Z,99794.30
2017-10-18T01:03:37.785Z,99785.91
2017-10-18T01:06:04.220Z,99789.02
2017-10-18T01:08:30.654Z,99789.69
2017-10-18T01:10:57.191Z,99789.02
2017-10-18T01:13:23.626Z,99746.50
2017-10-18T01:15:50.011Z,99782.02
2017-10-18T01:18:17.216Z,99773.27
2017-10-18T01:20:43.654Z,99771.66
2017-10-18T01:23:10.030Z,99777.73
2017-10-18T01:25:36.518Z,99773.42
2017-10-18T01:28:02.952Z,99772.08
2017-10-18T01:30:29.496Z,99771.00
2017-10-18T01:32:56.028Z,99766.02
2017-10-18T01:35:22.461Z,99766.55
2017-10-18T01:37:48.903Z,99765.77
2017-10-18T01:40:15.332Z,99767.78
2017-10-18T01:42:41.767Z,99769.80
2017-10-18T01:45:08.201Z,99766.02
2017-10-18T01:47:34.635Z,99766.17
2017-10-18T01:50:01.074Z,99762.54
2017-10-18T01:52:28.325Z,99764.94
2017-10-18T01:54:54.687Z,99766.28
2017-10-18T01:57:21.093Z,99760.38
2017-10-18T01:59:47.479Z,99757.27
2017-10-18T02:02:13.964Z,99760.78
2017-10-18T02:04:40.397Z,99763.21
2017-10-18T02:07:06.831Z,99753.23
2017-10-18T02:09:34.031Z,99756.59
2017-10-18T02:12:00.472Z,99754.99
2017-10-18T02:14:26.852Z,99758.88
2017-10-18T02:16:53.287Z,99759.17
2017-10-18T02:19:20.134Z,99757.14
2017-10-18T02:21:46.524Z,99755.11
2017-10-18T02:24:12.989Z,99746.75
2017-10-18T02:26:40.039Z,99746.08
2017-10-18T02:29:06.485Z,99756.86
2017-10-18T02:31:32.920Z,99754.84
2017-10-18T02:33:59.307Z,99753.62
2017-10-18T02:36:25.777Z,99746.36
2017-10-18T02:38:52.219Z,99742.86
2017-10-18T02:41:18.664Z,99754.19
2017-10-18T02:43:45.852Z,99748.66
2017-10-18T02:46:12.340Z,99745.44
2017-10-18T02:48:38.784Z,99743.52
2017-10-18T02:51:05.218Z,99737.08
2017-10-18T02:53:31.603Z,99738.83
2017-10-18T02:55:58.035Z,99734.80
2017-10-18T02:58:24.471Z,99739.20
2017-10-18T03:00:51.673Z,99737.08
2017-10-18T03:03:18.109Z,99736.81
2017-10-18T03:05:44.543Z,99738.55
2017-10-18T03:08:10.977Z,99733.31
2017-10-18T03:10:37.416Z,99738.80
2017-10-18T03:13:03.849Z,99735.43
2017-10-18T03:15:30.284Z,99738.64
2017-10-18T03:17:57.433Z,99739.30
2017-10-18T03:20:23.868Z,99734.33
2017-10-18T03:22:50.410Z,99735.11
2017-10-18T03:25:16.842Z,99737.39
2017-10-18T03:27:43.277Z,99720.02
2017-10-18T03:30:09.717Z,99732.24
2017-10-18T03:32:36.250Z,99727.16
2017-10-18T03:35:03.502Z,99719.23
2017-10-18T03:37:29.939Z,99717.22
2017-10-18T03:39:56.352Z,99686.42
2017-10-18T03:42:22.705Z,99719.41
2017-10-18T03:47:21.706Z,99713.99
2017-10-18T03:49:48.146Z,99711.41
2017-10-18T03:52:14.613Z,99713.72
2017-10-18T03:54:41.133Z,99708.87
2017-10-18T03:57:07.560Z,99715.35
2017-10-18T03:59:33.951Z,99708.39
2017-10-18T04:02:00.409Z,99709.63
2017-10-18T04:04:26.852Z,99706.66
2017-10-18T04:06:53.254Z,99709.34
2017-10-18T04:09:19.733Z,99701.76
2017-10-18T04:11:46.169Z,99706.02
2017-10-18T04:14:12.694Z,99704.30
2017-10-18T04:16:39.243Z,99700.38
2017-10-18T04:19:06.293Z,99697.03
2017-10-18T04:21:32.728Z,99694.35
2017-10-18T04:23:59.166Z,99699.17
2017-10-18T04:26:25.597Z,99702.48
2017-10-18T04:28:52.034Z,99697.63
2017-10-18T04:31:18.568Z,99696.41
2017-10-18T04:33:45.004Z,99699.13
2017-10-18T04:36:12.158Z,99690.36
2017-10-18T04:38:38.590Z,99696.69
2017-10-18T04:41:05.029Z,99700.32
2017-10-18T04:43:31.459Z,99699.83
2017-10-18T04:45:57.909Z,99662.15
2017-10-18T04:48:24.432Z,99696.63
2017-10-18T04:50:50.882Z,99696.36
2017-10-18T04:53:18.072Z,99677.67
2017-10-18T04:55:44.556Z,99695.02
2017-10-18T04:58:11.093Z,99699.89
2017-10-18T05:00:37.527Z,99706.25
2017-10-18T05:03:03.963Z,99702.60
2017-10-18T05:05:30.397Z,99702.90
2017-10-18T05:07:56.876Z,99699.81
2017-10-18T05:10:24.045Z,99696.17
2017-10-18T05:12:50.534Z,99698.08
2017-10-18T05:15:17.163Z,99711.53
2017-10-18T05:17:43.608Z,99705.75
2017-10-18T05:20:10.058Z,99707.48
2017-10-18T05:22:36.556Z,99703.85
2017-10-18T05:25:03.006Z,99706.39
2017-10-18T05:27:29.538Z,99703.69
2017-10-18T05:29:55.973Z,99706.22
2017-10-18T05:32:22.364Z,99704.06
2017-10-18T05:34:48.741Z,99706.02
2017-10-18T05:37:15.176Z,99708.95
2017-10-18T05:39:42.446Z,99715.17
2017-10-18T05:42:09.079Z,99709.77
2017-10-18T05:44:35.607Z,99714.98
2017-10-18T05:47:01.980Z,99708.48
2017-10-18T05:49:28.477Z,99707.91
2017-10-18T05:51:55.137Z,99711.84
2017-10-18T05:54:21.628Z,99713.02
2017-10-18T05:56:48.071Z,99693.59
2017-10-18T05:59:14.514Z,99720.66
2017-10-18T06:01:40.959Z,99715.48
2017-10-18T06:04:07.393Z,99716.38
2017-10-18T06:06:33.827Z,99712.83
2017-10-18T06:09:00.264Z,99709.34
2017-10-18T06:11:26.750Z,99709.26
2017-10-18T06:13:53.242Z,99705.63
2017-10-18T06:16:20.028Z,99706.66
2017-10-18T06:18:46.597Z,99715.95
2017-10-18T06:21:13.052Z,99706.11
2017-10-18T06:23:41.329Z,99710.36
2017-10-18T06:26:07.867Z,99692.80
2017-10-18T06:28:34.311Z,99713.78
2017-10-18T06:31:00.736Z,99708.80
2017-10-18T06:33:27.170Z,99708.70
2017-10-18T06:35:53.707Z,99708.08
2017-10-18T06:38:20.655Z,99700.41
2017-10-18T06:40:47.191Z,99707.41
2017-10-18T06:43:13.627Z,99702.22
2017-10-18T06:45:40.368Z,99704.83
2017-10-18T06:48:06.803Z,99703.53
2017-10-18T06:50:33.343Z,99703.06
2017-10-18T06:52:59.789Z,99699.52
2017-10-18T06:55:26.524Z,99695.63
2017-10-18T06:57:53.055Z,99696.53
2017-10-18T07:00:19.491Z,99701.80
2017-10-18T07:02:46.071Z,99700.31
2017-10-18T07:05:12.693Z,99699.08
2017-10-18T07:07:39.204Z,99696.03
2017-10-18T07:10:05.743Z,99684.67
2017-10-18T07:12:32.131Z,99697.27
2017-10-18T07:14:58.508Z,99694.44
2017-10-18T07:17:24.944Z,99692.31
2017-10-18T07:19:51.994Z,99692.00
2017-10-18T07:22:18.631Z,99682.25
2017-10-18T07:24:45.067Z,99681.05
2017-10-18T07:27:11.502Z,99680.05
2017-10-18T07:29:38.039Z,99680.66
2017-10-18T07:32:04.423Z,99676.14
2017-10-18T07:34:30.805Z,99679.10
2017-10-18T07:36:57.283Z,99674.50
2017-10-18T07:39:23.781Z,99670.83
2017-10-18T07:41:50.212Z,99669.57
2017-10-18T07:44:16.647Z,99666.47
2017-10-18T07:46:43.185Z,99660.80
2017-10-18T07:49:09.675Z,99658.22
2017-10-18T07:51:36.114Z,99653.48
2017-10-18T07:54:02.695Z,99662.22
2017-10-18T07:56:29.130Z,99651.38
2017-10-18T07:58:55.665Z,99647.12
2017-10-18T08:01:22.260Z,99647.96
2017-10-18T08:03:48.729Z,99643.18
2017-10-18T08:06:15.174Z,99645.80
2017-10-18T08:08:41.714Z,99644.86
2017-10-18T08:11:08.209Z,99636.66
2017-10-18T08:13:34.683Z,99638.98
2017-10-18T08:16:01.120Z,99640.42
2017-10-18T08:18:27.660Z,99635.91
2017-10-18T08:20:54.574Z,99638.26
2017-10-18T08:23:21.283Z,99630.33
2017-10-18T08:25:47.882Z,99628.19
2017-10-18T08:28:14.845Z,99630.22
2017-10-18T08:30:41.469Z,99619.02
2017-10-18T08:33:07.907Z,99619.50
2017-10-18T08:35:34.453Z,99615.30
2017-10-18T08:38:01.182Z,99617.09
2017-10-18T08:40:27.725Z,99616.34
2017-10-18T08:42:54.247Z,99611.66
2017-10-18T08:45:20.980Z,99612.78
2017-10-18T08:47:47.434Z,99612.63
2017-10-18T08:50:13.972Z,99583.95
2017-10-18T08:52:40.412Z,99611.15
2017-10-18T08:55:06.841Z,99605.95
2017-10-18T08:57:33.685Z,99601.17
2017-10-18T09:00:00.112Z,99606.43
2017-10-18T09:02:26.657Z,99595.48
2017-10-18T09:04:53.093Z,99596.08
2017-10-18T09:07:19.527Z,99591.48
2017-10-18T09:09:46.591Z,99597.99
2017-10-18T09:12:13.011Z,99587.67
2017-10-18T09:14:39.676Z,99586.44
2017-10-18T09:17:06.700Z,99583.27
2017-10-18T09:19:33.442Z,99588.80
2017-10-18T09:21:59.972Z,99587.84
2017-10-18T09:24:26.414Z,99582.66
2017-10-18T09:26:52.899Z,99577.16
2017-10-18T09:29:19.591Z,99573.38
2017-10-18T09:31:46.074Z,99564.88
2017-10-18T09:34:12.588Z,99568.89
2017-10-18T09:36:39.102Z,99570.83
2017-10-18T09:39:05.535Z,99565.74
2017-10-18T09:41:31.969Z,99564.78
2017-10-18T09:43:58.405Z,99565.87
2017-10-18T09:46:25.249Z,99562.12
2017-10-18T09:48:51.787Z,99541.28
2017-10-18T09:51:18.224Z,99553.23
2017-10-18T09:53:44.656Z,99549.92
2017-10-18T09:56:11.091Z,99543.25
2017-10-18T09:58:37.628Z,99537.83
2017-10-18T10:01:04.063Z,99539.73
2017-10-18T10:03:30.542Z,99539.52
2017-10-18T10:05:57.381Z,99530.97
2017-10-18T10:08:23.879Z,99533.83
2017-10-18T10:10:51.132Z,99524.75
2017-10-18T10:13:17.743Z,99526.79
2017-10-18T10:15:44.210Z,99523.79
2017-10-18T10:18:11.155Z,99515.45
2017-10-18T10:20:37.542Z,99519.15
2017-10-18T10:23:04.024Z,99516.58
2017-10-18T10:25:30.460Z,99511.03
2017-10-18T10:27:57.013Z,99508.14
2017-10-18T10:30:23.537Z,99515.93
2017-10-18T10:32:49.969Z,99501.45
2017-10-18T10:35:16.457Z,99504.68
2017-10-18T10:37:42.837Z,99502.09
2017-10-18T10:40:09.273Z,99494.30
2017-10-18T10:42:35.708Z,99490.11
2017-10-18T10:45:02.656Z,99483.98
2017-10-18T10:47:29.091Z,99483.31
2017-10-18T10:49:55.626Z,99479.70
2017-10-18T10:52:22.320Z,99473.98
2017-10-18T10:54:48.804Z,99471.16
2017-10-18T10:57:15.341Z,99470.78
2017-10-18T10:59:41.981Z,99467.02
2017-10-18T11:02:08.518Z,99462.25
2017-10-18T11:04:35.126Z,99454.72
2017-10-18T11:07:01.708Z,99457.86
2017-10-18T11:09:28.334Z,99452.77
2017-10-18T11:11:54.737Z,99452.80
2017-10-18T11:14:21.593Z,99451.61
2017-10-18T11:16:48.035Z,99450.49
2017-10-18T11:19:14.688Z,99447.03
2017-10-18T11:21:41.429Z,99445.63
2017-10-18T11:24:07.870Z,99437.67
2017-10-18T11:26:34.247Z,99438.49
2017-10-18T11:29:01.860Z,99429.72
2017-10-18T11:31:28.398Z,99431.13
2017-10-18T11:33:54.915Z,99423.78
2017-10-18T11:36:21.305Z,99424.66
2017-10-18T11:38:48.113Z,99415.08
2017-10-18T11:41:14.550Z,99424.09
2017-10-18T11:43:40.981Z,99415.41
2017-10-18T11:46:07.928Z,99413.69
2017-10-18T11:48:34.421Z,99411.75
2017-10-18T11:51:00.786Z,99408.55
2017-10-18T11:53:27.234Z,99398.31
2017-10-18T11:55:54.552Z,99403.78
2017-10-18T11:58:21.234Z,99400.42
2017-10-18T12:00:47.619Z,99392.47
2017-10-18T12:03:14.104Z,99396.66
2017-10-18T12:05:40.536Z,99393.05
2017-10-18T12:08:07.071Z,99387.48
2017-10-18T12:10:33.506Z,99393.27
2017-10-18T12:12:59.941Z,99387.31
2017-10-18T12:15:26.376Z,99382.88
2017-10-18T12:17:52.810Z,99382.00
2017-10-18T12:20:19.246Z,99374.94
2017-10-18T12:22:46.101Z,99377.95
2017-10-18T12:25:12.668Z,99378.90
2017-10-18T12:27:39.274Z,99384.21
2017-10-18T12:30:06.642Z,99370.31
2017-10-18T12:32:33.149Z,99365.38
2017-10-18T12:34:59.698Z,99368.92
2017-10-18T12:37:26.298Z,99363.22
2017-10-18T12:39:52.771Z,99361.19
2017-10-18T12:42:19.295Z,99353.14
2017-10-18T12:44:45.847Z,99348.56
2017-10-18T12:47:12.487Z,99338.87
2017-10-18T12:49:39.226Z,99343.80
2017-10-18T12:52:05.767Z,99349.70
2017-10-18T12:54:32.721Z,99341.75
2017-10-18T12:56:59.558Z,99336.88
2017-10-18T12:59:26.049Z,99334.38
2017-10-18T13:01:52.536Z,99338.31
2017-10-18T13:04:19.220Z,99337.50
2017-10-18T13:06:45.808Z,99323.58
2017-10-18T13:09:12.476Z,99333.45
2017-10-18T13:11:39.292Z,99326.44
2017-10-18T13:14:05.783Z,99327.37
2017-10-18T13:16:32.775Z,99325.94
2017-10-18T13:18:59.193Z,99323.89
2017-10-18T13:21:25.599Z,99320.66
2017-10-18T13:23:52.388Z,99325.34
2017-10-18T13:26:18.824Z,99315.28
2017-10-18T13:28:45.393Z,99314.39
2017-10-18T13:31:12.000Z,99315.60
2017-10-18T13:33:38.435Z,99320.22
2017-10-18T13:36:04.994Z,99315.08
2017-10-18T13:38:31.508Z,99309.72
2017-10-18T13:40:58.455Z,99315.06
2017-10-18T13:43:25.526Z,99306.56
2017-10-18T13:45:52.355Z,99307.13
2017-10-18T13:48:19.809Z,99300.26
2017-10-18T13:53:21.526Z,99305.77
2017-10-18T13:55:48.040Z,99300.30
2017-10-18T13:58:16.220Z,99300.30
2017-10-18T14:00:42.651Z,99297.72
2017-10-18T14:03:09.101Z,99297.78
2017-10-18T14:05:35.521Z,99297.64
2017-10-18T14:08:02.330Z,99298.84
2017-10-18T14:10:28.751Z,99297.05
2017-10-18T14:12:56.155Z,99298.20
2017-10-18T14:15:22.620Z,99296.64
2017-10-18T14:17:49.845Z,99294.85
2017-10-18T14:20:16.970Z,99292.64
2017-10-18T14:22:43.533Z,99289.84
2017-10-18T14:25:09.940Z,99293.86
2017-10-18T14:27:36.600Z,99285.95
2017-10-18T14:30:03.013Z,99288.83
2017-10-18T14:32:29.580Z,99287.91
2017-10-18T14:34:55.978Z,99299.80
2017-10-18T14:37:22.552Z,99281.81
2017-10-18T14:39:49.400Z,99274.50
2017-10-18T14:42:16.234Z,99282.80
2017-10-18T14:44:42.676Z,99271.77
2017-10-18T14:47:09.112Z,99286.56
2017-10-18T14:49:35.751Z,99290.59
2017-10-18T14:52:02.129Z,99288.83
2017-10-18T14:54:28.620Z,99286.75
2017-10-18T14:56:55.362Z,99285.50
2017-10-18T14:59:21.754Z,99290.53
2017-10-18T15:01:48.129Z,99293.50
2017-10-18T15:04:14.563Z,99288.33
2017-10-18T15:06:41.064Z,99301.66
2017-10-18T15:09:07.483Z,99305.16
2017-10-18T15:11:33.906Z,99309.97
2017-10-18T15:14:00.306Z,99313.13
2017-10-18T15:16:28.517Z,99311.92
2017-10-18T15:18:55.016Z,99308.52
2017-10-18T15:21:21.451Z,99303.70
2017-10-18T15:23:47.888Z,99308.73
2017-10-18T15:26:14.423Z,99304.55
2017-10-18T15:28:40.852Z,99305.47
2017-10-18T15:31:07.293Z,99301.63
2017-10-18T15:33:33.885Z,99308.66
2017-10-18T15:36:00.354Z,99305.92
2017-10-18T15:38:26.699Z,99305.31
2017-10-18T15:40:53.077Z,99309.46
2017-10-18T15:43:19.558Z,99298.67
2017-10-18T15:45:46.012Z,99312.15
2017-10-18T15:48:12.439Z,99312.55
2017-10-18T15:50:38.861Z,99313.20
2017-10-18T15:53:05.304Z,99317.13
2017-10-18T15:55:31.762Z,99319.88
2017-10-18T15:57:59.203Z,99315.20
2017-10-18T16:00:25.682Z,99320.98
2017-10-18T16:02:52.150Z,99323.41
2017-10-18T16:05:18.609Z,99328.27
2017-10-18T16:07:45.130Z,99331.45
2017-10-18T16:10:11.580Z,99328.11
2017-10-18T16:12:38.118Z,99331.23
2017-10-18T16:15:04.552Z,99328.64
2017-10-18T16:17:30.988Z,99333.27
2017-10-18T16:19:57.422Z,99336.24
2017-10-18T16:22:23.861Z,99334.88
2017-10-18T16:24:50.292Z,99316.73
2017-10-18T16:27:16.777Z,99338.48
2017-10-18T16:29:43.246Z,99330.91
2017-10-18T16:32:09.689Z,99334.42
2017-10-18T16:34:36.133Z,99332.06
2017-10-18T16:37:02.570Z,99337.05
2017-10-18T16:39:29.004Z,99335.17
2017-10-18T16:41:55.442Z,99330.63
2017-10-18T16:44:21.876Z,99332.51
2017-10-18T16:46:48.311Z,99336.10
2017-10-18T16:49:14.713Z,99338.20
2017-10-18T16:51:41.156Z,99332.23
2017-10-18T16:54:07.568Z,99334.19
2017-10-18T16:56:33.987Z,99336.44
2017-10-18T16:59:00.484Z,99323.30
2017-10-18T17:01:26.919Z,99332.19
2017-10-18T17:03:53.457Z,99331.78
2017-10-18T17:06:19.815Z,99328.13
2017-10-18T17:08:46.222Z,99332.22
2017-10-18T17:11:12.659Z,99326.80
2017-10-18T17:13:39.093Z,99328.52
2017-10-18T17:16:05.527Z,99329.00
2017-10-18T17:18:31.961Z,99330.84
2017-10-18T17:20:58.472Z,99331.47
2017-10-18T17:23:24.935Z,99319.19
2017-10-18T17:25:51.369Z,99328.78
2017-10-18T17:28:17.804Z,99332.75
2017-10-18T17:30:44.238Z,99333.70
2017-10-18T17:33:10.619Z,99331.43
2017-10-18T17:35:37.143Z,99338.11
2017-10-18T17:38:03.644Z,99339.55
2017-10-18T17:40:30.285Z,99331.14
2017-10-18T17:42:56.724Z,99332.17
2017-10-18T17:45:23.165Z,99330.25
2017-10-18T17:47:50.307Z,99331.09
2017-10-18T17:50:16.740Z,99327.39
2017-10-18T17:52:43.277Z,99331.91
2017-10-18T17:55:09.731Z,99332.02
2017-10-18T17:57:36.203Z,99332.27
2017-10-18T18:00:02.685Z,99333.31
2017-10-18T18:02:29.079Z,99335.26
2017-10-18T18:04:55.563Z,99333.08
2017-10-18T18:07:22.009Z,99335.08
2017-10-18T18:09:48.508Z,99334.87
2017-10-18T18:12:14.966Z,99334.41
2017-10-18T18:14:41.827Z,99337.91
2017-10-18T18:17:08.343Z,99340.63
2017-10-18T18:19:34.881Z,99339.53
2017-10-18T18:22:01.316Z,99337.73
2017-10-18T18:24:27.750Z,99343.48
2017-10-18T18:26:54.184Z,99328.11
2017-10-18T18:29:20.632Z,99339.23
2017-10-18T18:31:47.058Z,99345.63
2017-10-18T18:34:13.462Z,99344.99
2017-10-18T18:36:39.923Z,99347.77
2017-10-18T18:39:06.360Z,99351.71
2017-10-18T18:41:32.747Z,99346.44
2017-10-18T18:43:59.229Z,99341.51
2017-10-18T18:46:25.813Z,99342.66
2017-10-18T18:48:52.303Z,99340.88
2017-10-18T18:51:19.658Z,99340.65
2017-10-18T18:53:46.094Z,99336.91
2017-10-18T18:56:12.547Z,99342.20
2017-10-18T18:58:38.964Z,99349.64
2017-10-18T19:01:05.358Z,99342.81
2017-10-18T19:03:31.732Z,99347.20
2017-10-18T19:05:58.166Z,99343.77
2017-10-18T19:08:24.602Z,99348.88
2017-10-18T19:10:51.057Z,99343.72
2017-10-18T19:13:17.776Z,99348.11
2017-10-18T19:15:44.693Z,99349.97
2017-10-18T19:18:11.113Z,99352.52
2017-10-18T19:20:37.595Z,99351.88
2017-10-18T19:23:04.030Z,99350.45
2017-10-18T19:25:30.566Z,99348.77
2017-10-18T19:27:57.423Z,99353.41
2017-10-18T19:30:23.846Z,99353.80
2017-10-18T19:32:50.384Z,99350.19
2017-10-18T19:35:16.866Z,99347.26
2017-10-18T19:37:43.355Z,99346.39
2017-10-18T19:40:09.790Z,99341.30
2017-10-18T19:42:36.232Z,99345.49
2017-10-18T19:45:02.664Z,99340.14
2017-10-18T19:47:29.075Z,99340.84
2017-10-18T19:49:55.528Z,99334.84
2017-10-18T19:52:21.963Z,99317.00
2017-10-18T19:54:48.398Z,99334.57
2017-10-18T19:57:14.833Z,99336.95
2017-10-18T19:59:41.268Z,99328.05
2017-10-18T20:02:07.714Z,99333.56
2017-10-18T20:04:34.227Z,99336.70
2017-10-18T20:07:00.676Z,99335.52
2017-10-18T20:09:27.933Z,99334.89
2017-10-18T20:11:54.366Z,99335.67
2017-10-18T20:14:20.799Z,99333.88
2017-10-18T20:16:47.236Z,99329.14
2017-10-18T20:19:13.620Z,99332.81
2017-10-18T20:21:40.050Z,99329.86
2017-10-18T20:24:06.538Z,99324.61
2017-10-18T20:26:32.920Z,99329.73
2017-10-18T20:28:59.408Z,99326.81
2017-10-18T20:31:25.843Z,99325.45
2017-10-18T20:33:52.278Z,99323.00
2017-10-18T20:36:18.713Z,99320.33
2017-10-18T20:38:45.100Z,99318.55
2017-10-18T20:41:11.531Z,99321.81
2017-10-18T20:43:38.018Z,99318.99
2017-10-18T20:46:04.451Z,99325.92
2017-10-18T20:48:30.887Z,99320.33
2017-10-18T20:50:57.322Z,99322.35
2017-10-18T20:53:23.756Z,99319.66
2017-10-18T20:55:50.190Z,99322.66
2017-10-18T20:58:16.625Z,99322.58
2017-10-18T21:00:43.062Z,99322.90
2017-10-18T21:03:09.496Z,99319.62
2017-10-18T21:05:35.880Z,99323.63
2017-10-18T21:08:02.365Z,99321.16
2017-10-18T21:10:29.518Z,99321.48
2017-10-18T21:12:55.973Z,99324.77
2017-10-18T21:15:22.441Z,99319.02
2017-10-18T21:17:49.230Z,99322.76
2017-10-18T21:20:15.668Z,99319.84
2017-10-18T21:22:42.089Z,99324.71
2017-10-18T21:25:08.537Z,99315.36
2017-10-18T21:27:35.077Z,99321.29
2017-10-18T21:30:01.508Z,99312.23
2017-10-18T21:32:27.945Z,99316.53
2017-10-18T21:34:54.483Z,99320.73
2017-10-18T21:37:20.915Z,99313.48
2017-10-18T21:39:47.352Z,99313.36
2017-10-18T21:42:13.785Z,99319.30
2017-10-18T21:44:40.220Z,99316.83
2017-10-18T21:47:06.654Z,99315.64
2017-10-18T21:49:33.058Z,99317.09
2017-10-18T21:51:59.501Z,99315.19
2017-10-18T21:54:25.958Z,99309.94
2017-10-18T21:56:52.498Z,99317.31
2017-10-18T21:59:18.846Z,99313.40
2017-10-18T22:01:45.262Z,99320.14
2017-10-18T22:04:11.698Z,99313.78
2017-10-18T22:06:38.644Z,99318.12
2017-10-18T22:09:05.080Z,99319.72
2017-10-18T22:11:31.514Z,99322.75
2017-10-18T22:13:57.950Z,99322.14
2017-10-18T22:16:24.352Z,99324.13
2017-10-18T22:18:50.840Z,99316.63
2017-10-18T22:21:17.356Z,99322.86
2017-10-18T22:23:43.791Z,99318.38
2017-10-18T22:26:10.226Z,99315.23
2017-10-18T22:28:36.660Z,99317.27
2017-10-18T22:31:03.099Z,99315.14
2017-10-18T22:33:29.530Z,99321.64
2017-10-18T22:35:56.068Z,99315.17
2017-10-18T22:38:22.504Z,99307.04
2017-10-18T22:40:48.938Z,99312.86
2017-10-18T22:43:15.372Z,99308.45
2017-10-18T22:45:41.806Z,99305.36
2017-10-18T22:48:08.246Z,99303.70
2017-10-18T22:50:34.779Z,99300.80
2017-10-18T22:53:01.213Z,99302.30
2017-10-18T22:55:27.588Z,99305.33
2017-10-18T22:57:54.049Z,99306.86
2017-10-18T23:00:20.518Z,99300.96
2017-10-18T23:02:47.056Z,99306.05
2017-10-18T23:05:13.478Z,99305.64
2017-10-18T23:07:39.921Z,99305.50
2017-10-18T23:10:06.360Z,99303.47
2017-10-18T23:12:32.795Z,99309.55
2017-10-18T23:14:59.229Z,99305.00
2017-10-18T23:17:25.615Z,99308.89
2017-10-18T23:19:52.099Z,99307.58
2017-10-18T23:22:18.534Z,99315.62
2017-10-18T23:24:44.918Z,99286.11
2017-10-18T23:27:11.402Z,99302.78
2017-10-18T23:29:37.838Z,99298.33
2017-10-18T23:32:04.273Z,99299.33
2017-10-18T23:34:30.709Z,99303.88
2017-10-18T23:36:57.094Z,99305.41
2017-10-18T23:39:23.475Z,99298.45
2017-10-18T23:41:49.910Z,99301.81
2017-10-18T23:44:16.856Z,99301.27
2017-10-18T23:46:43.291Z,99299.84
2017-10-18T23:49:09.726Z,99305.88
2017-10-18T23:51:36.160Z,99304.56
2017-10-18T23:54:02.599Z,99305.07
2017-10-18T23:56:29.031Z,99303.88
2017-10-18T23:58:55.465Z,99303.70
